createdAt,value
2019-04-26T00:01:27.030Z,15.10
2019-04-26T00:03:57.768Z,15.00
2019-04-26T00:06:28.894Z,15.00
2019-04-26T00:09:00.869Z,15.00
2019-04-26T00:11:35.893Z,15.00
2019-04-26T00:14:14.828Z,15.00
2019-04-26T00:16:46.790Z,14.90
2019-04-26T00:19:17.871Z,14.90
2019-04-26T00:21:49.089Z,14.90
2019-04-26T00:24:19.810Z,14.90
2019-04-26T00:26:50.134Z,14.90
2019-04-26T00:29:21.149Z,14.90
2019-04-26T00:31:51.805Z,14.90
2019-04-26T00:34:22.333Z,14.90
2019-04-26T00:36:52.659Z,14.80
2019-04-26T00:39:24.847Z,14.90
2019-04-26T00:41:55.354Z,14.80
2019-04-26T00:44:26.292Z,14.90
2019-04-26T00:47:17.711Z,14.80
2019-04-26T00:49:48.036Z,14.90
2019-04-26T00:52:19.484Z,14.80
2019-04-26T00:54:50.449Z,14.80
2019-04-26T00:57:22.304Z,14.80
2019-04-26T00:59:53.219Z,14.70
2019-04-26T01:02:25.169Z,14.60
2019-04-26T01:04:55.915Z,14.50
2019-04-26T01:07:26.649Z,14.40
2019-04-26T01:09:56.973Z,14.40
2019-04-26T01:12:27.911Z,14.30
2019-04-26T01:14:58.029Z,14.20
2019-04-26T01:17:28.353Z,14.20
2019-04-26T01:20:00.520Z,14.20
2019-04-26T01:22:33.711Z,14.20
2019-04-26T01:25:05.257Z,14.10
2019-04-26T01:27:37.576Z,14.00
2019-04-26T01:30:10.622Z,14.00
2019-04-26T01:32:43.198Z,14.00
2019-04-26T01:35:13.726Z,13.90
2019-04-26T01:37:46.400Z,14.00
2019-04-26T01:40:18.268Z,13.90
2019-04-26T01:42:54.734Z,13.90
2019-04-26T01:45:28.948Z,13.80
2019-04-26T01:48:02.140Z,13.80
2019-04-26T01:50:33.673Z,13.80
2019-04-26T01:53:05.542Z,13.90
2019-04-26T01:55:35.986Z,13.80
2019-04-26T01:58:07.624Z,13.80
2019-04-26T02:00:39.479Z,13.70
2019-04-26T02:03:15.542Z,13.60
2019-04-26T02:05:45.669Z,13.60
2019-04-26T02:08:16.184Z,13.60
2019-04-26T02:10:46.522Z,13.50
2019-04-26T02:13:17.068Z,13.60
2019-04-26T02:15:47.580Z,13.50
2019-04-26T02:18:18.516Z,13.50
2019-04-26T02:20:56.302Z,13.60
2019-04-26T02:23:28.585Z,13.60
2019-04-26T02:26:00.548Z,13.50
2019-04-26T02:28:30.872Z,13.50
2019-04-26T02:31:01.196Z,13.40
2019-04-26T02:33:33.689Z,13.40
2019-04-26T02:36:04.507Z,13.40
2019-04-26T02:38:36.629Z,13.40
2019-04-26T02:41:07.718Z,13.40
2019-04-26T02:43:40.804Z,13.40
2019-04-26T02:46:14.801Z,13.40
2019-04-26T02:48:51.779Z,13.30
2019-04-26T02:51:24.881Z,13.30
2019-04-26T02:54:00.939Z,13.30
2019-04-26T02:56:38.235Z,13.20
2019-04-26T02:59:14.488Z,13.20
2019-04-26T03:01:45.429Z,13.20
2019-04-26T03:04:16.168Z,13.20
2019-04-26T03:07:02.179Z,13.20
2019-04-26T03:09:21.313Z,13.20
2019-04-26T03:11:54.505Z,13.10
2019-04-26T03:14:27.285Z,13.10
2019-04-26T03:17:02.010Z,13.10
2019-04-26T03:19:57.219Z,13.10
2019-04-26T03:22:47.006Z,13.10
2019-04-26T03:25:36.973Z,13.10
2019-04-26T03:28:28.403Z,13.10
2019-04-26T03:31:14.296Z,13.10
2019-04-26T03:33:53.646Z,13.10
2019-04-26T03:36:27.432Z,13.10
2019-04-26T03:39:17.215Z,13.00
2019-04-26T03:42:26.651Z,13.00
2019-04-26T03:45:15.206Z,13.00
2019-04-26T03:47:53.718Z,13.00
2019-04-26T03:50:35.266Z,13.00
2019-04-26T03:53:25.700Z,13.00
2019-04-26T03:56:10.770Z,13.00
2019-04-26T03:59:01.997Z,13.00
2019-04-26T04:01:37.265Z,13.10
2019-04-26T04:04:27.208Z,13.10
2019-04-26T04:07:04.549Z,13.10
2019-04-26T04:09:35.873Z,13.10
2019-04-26T04:12:16.088Z,13.20
2019-04-26T04:15:08.119Z,13.20
2019-04-26T04:17:47.826Z,13.20
2019-04-26T04:20:24.448Z,13.20
2019-04-26T04:23:14.014Z,13.20
2019-04-26T04:25:52.744Z,13.20
2019-04-26T04:28:46.508Z,13.30
2019-04-26T04:31:23.290Z,13.30
2019-04-26T04:34:02.837Z,13.40
2019-04-26T04:36:36.021Z,13.40
2019-04-26T04:39:30.310Z,13.60
2019-04-26T04:42:21.523Z,13.60
2019-04-26T04:45:05.770Z,13.70
2019-04-26T04:47:55.350Z,13.70
2019-04-26T04:50:33.033Z,13.80
2019-04-26T04:53:43.415Z,13.90
2019-04-26T04:56:51.937Z,14.00
2019-04-26T04:59:44.068Z,14.10
2019-04-26T05:02:44.916Z,14.10
2019-04-26T05:05:34.778Z,14.20
2019-04-26T05:08:13.908Z,14.30
2019-04-26T05:11:08.290Z,14.40
2019-04-26T05:13:45.207Z,14.40
2019-04-26T05:16:33.153Z,14.60
2019-04-26T05:19:29.757Z,14.60
2019-04-26T05:22:08.677Z,14.70
2019-04-26T05:25:16.890Z,14.80
2019-04-26T05:27:57.665Z,14.80
2019-04-26T05:30:44.364Z,14.80
2019-04-26T05:33:17.761Z,14.90
2019-04-26T05:36:07.336Z,15.00
2019-04-26T05:38:55.567Z,15.10
2019-04-26T05:41:59.479Z,15.30
2019-04-26T05:44:43.433Z,15.40
2019-04-26T05:47:45.298Z,15.50
2019-04-26T05:50:29.179Z,15.60
2019-04-26T05:53:32.031Z,15.70
2019-04-26T05:56:27.541Z,15.70
2019-04-26T05:59:09.536Z,15.90
2019-04-26T06:02:20.820Z,16.00
2019-04-26T06:05:05.947Z,16.10
2019-04-26T06:07:56.364Z,16.30
2019-04-26T06:10:29.576Z,16.70
2019-04-26T06:13:21.762Z,16.90
2019-04-26T06:15:56.389Z,17.00
2019-04-26T06:18:48.727Z,17.20
2019-04-26T06:21:24.430Z,17.20
2019-04-26T06:24:04.849Z,17.40
2019-04-26T06:27:10.363Z,17.50
2019-04-26T06:29:40.527Z,17.60
2019-04-26T06:32:13.369Z,17.50
2019-04-26T06:35:01.788Z,17.60
2019-04-26T06:37:36.685Z,17.90
2019-04-26T06:40:12.675Z,17.80
2019-04-26T06:43:10.239Z,18.00
2019-04-26T06:45:51.426Z,18.30
2019-04-26T06:48:52.255Z,18.70
2019-04-26T06:51:31.593Z,19.00
2019-04-26T06:54:17.777Z,19.50
2019-04-26T06:57:14.885Z,19.80
2019-04-26T06:59:44.242Z,20.50
2019-04-26T07:02:37.192Z,20.90
2019-04-26T07:05:15.296Z,21.50
2019-04-26T07:08:14.913Z,21.80
2019-04-26T07:11:17.386Z,22.10
2019-04-26T07:13:59.163Z,22.20
2019-04-26T07:16:47.730Z,22.30
2019-04-26T07:20:04.304Z,22.60
2019-04-26T07:23:17.264Z,22.50
2019-04-26T07:26:09.707Z,22.90
2019-04-26T07:28:46.991Z,23.60
2019-04-26T07:31:54.581Z,24.60
2019-04-26T07:34:47.111Z,24.70
2019-04-26T07:37:49.098Z,24.50
2019-04-26T07:40:44.593Z,24.70
2019-04-26T07:43:53.033Z,25.30
2019-04-26T07:46:50.370Z,25.50
2019-04-26T07:49:56.550Z,25.70
2019-04-26T07:52:35.483Z,25.60
2019-04-26T07:55:20.545Z,25.80
2019-04-26T07:58:26.094Z,26.40
2019-04-26T08:01:15.659Z,27.20
2019-04-26T08:03:57.052Z,27.60
2019-04-26T08:06:33.200Z,28.40
2019-04-26T08:09:09.706Z,28.90
2019-04-26T08:11:45.227Z,29.20
2019-04-26T08:14:23.891Z,30.30
2019-04-26T08:17:31.750Z,31.10
2019-04-26T08:20:17.639Z,31.10
2019-04-26T08:22:55.767Z,31.50
2019-04-26T08:25:29.535Z,31.60
2019-04-26T08:28:03.150Z,31.80
2019-04-26T08:30:40.590Z,31.40
2019-04-26T08:33:14.730Z,31.70
2019-04-26T08:35:48.983Z,32.20
2019-04-26T08:38:22.670Z,32.40
2019-04-26T08:40:53.017Z,32.90
2019-04-26T08:43:39.787Z,33.10
2019-04-26T08:46:32.334Z,32.70
2019-04-26T08:49:19.923Z,33.30
2019-04-26T08:51:52.289Z,34.10
2019-04-26T08:54:25.507Z,33.60
2019-04-26T08:57:01.549Z,34.20
2019-04-26T08:59:40.390Z,34.40
2019-04-26T09:02:33.935Z,33.90
2019-04-26T09:05:11.161Z,33.40
2019-04-26T09:07:44.017Z,34.00
2019-04-26T09:10:16.407Z,34.30
2019-04-26T09:12:48.669Z,34.30
2019-04-26T09:15:21.488Z,35.10
2019-04-26T09:17:51.373Z,35.10
2019-04-26T09:20:28.638Z,35.20
2019-04-26T09:23:03.857Z,35.20
2019-04-26T09:25:34.529Z,35.00
2019-04-26T09:28:15.548Z,35.70
2019-04-26T09:30:53.033Z,35.20
2019-04-26T09:33:27.310Z,35.00
2019-04-26T09:35:57.200Z,34.10
2019-04-26T09:38:27.219Z,33.80
2019-04-26T09:40:57.332Z,34.00
2019-04-26T09:43:28.982Z,34.50
2019-04-26T09:46:00.563Z,34.30
2019-04-26T09:48:36.740Z,34.00
2019-04-26T09:51:08.766Z,31.80
2019-04-26T09:53:39.491Z,32.30
2019-04-26T09:56:10.275Z,32.30
2019-04-26T09:58:40.283Z,31.20
2019-04-26T10:01:10.191Z,31.30
2019-04-26T10:03:40.087Z,31.20
2019-04-26T10:06:10.191Z,30.20
2019-04-26T10:08:43.375Z,30.00
2019-04-26T10:11:13.353Z,30.10
2019-04-26T10:13:44.980Z,31.00
2019-04-26T10:16:22.605Z,31.10
2019-04-26T10:18:54.594Z,31.50
2019-04-26T10:21:25.911Z,31.70
2019-04-26T10:23:55.870Z,31.60
2019-04-26T10:26:28.160Z,30.40
2019-04-26T10:28:57.617Z,30.70
2019-04-26T10:31:27.527Z,30.30
2019-04-26T10:33:57.433Z,30.20
2019-04-26T10:36:30.275Z,30.10
2019-04-26T10:38:59.714Z,30.00
2019-04-26T10:41:29.629Z,30.30
2019-04-26T10:43:59.439Z,30.10
2019-04-26T10:46:29.518Z,29.90
2019-04-26T10:49:08.537Z,30.10
2019-04-26T10:51:32.714Z,30.70
2019-04-26T10:54:07.690Z,30.50
2019-04-26T10:56:42.255Z,30.30
2019-04-26T10:59:25.864Z,30.20
2019-04-26T11:01:55.777Z,31.00
2019-04-26T11:04:25.917Z,30.90
2019-04-26T11:06:58.077Z,31.40
2019-04-26T11:09:27.346Z,32.10
2019-04-26T11:11:57.164Z,32.90
2019-04-26T11:14:27.214Z,32.60
2019-04-26T11:16:57.103Z,32.80
2019-04-26T11:19:27.048Z,32.90
2019-04-26T11:21:56.863Z,32.40
2019-04-26T11:24:27.288Z,31.50
2019-04-26T11:26:57.107Z,31.20
2019-04-26T11:29:28.808Z,31.10
2019-04-26T11:32:02.547Z,30.60
2019-04-26T11:34:30.137Z,30.30
2019-04-26T11:37:00.032Z,30.30
2019-04-26T11:39:29.891Z,30.50
2019-04-26T11:41:59.805Z,30.50
2019-04-26T11:44:29.846Z,30.20
2019-04-26T11:47:03.286Z,29.30
2019-04-26T11:49:31.290Z,29.00
2019-04-26T11:52:02.903Z,28.70
2019-04-26T11:54:32.855Z,28.60
2019-04-26T11:57:02.773Z,28.30
2019-04-26T11:59:32.809Z,28.10
2019-04-26T12:02:02.871Z,27.90
2019-04-26T12:04:37.186Z,27.90
2019-04-26T12:07:20.600Z,27.90
2019-04-26T12:10:05.901Z,27.80
2019-04-26T12:12:35.296Z,27.70
2019-04-26T12:15:08.430Z,27.90
2019-04-26T12:17:38.283Z,28.20
2019-04-26T12:20:08.282Z,28.80
2019-04-26T12:22:39.454Z,29.30
2019-04-26T12:25:09.826Z,29.40
2019-04-26T12:27:39.808Z,29.70
2019-04-26T12:30:10.070Z,29.20
2019-04-26T12:32:39.893Z,29.20
2019-04-26T12:35:09.766Z,28.70
2019-04-26T12:37:39.615Z,28.50
2019-04-26T12:40:11.254Z,28.40
2019-04-26T12:42:43.340Z,28.40
2019-04-26T12:45:16.817Z,28.30
2019-04-26T12:47:57.033Z,28.30
2019-04-26T12:50:29.430Z,28.70
2019-04-26T12:52:58.995Z,28.60
2019-04-26T12:55:28.838Z,28.90
2019-04-26T12:57:58.731Z,29.10
2019-04-26T13:00:32.981Z,29.30
2019-04-26T13:03:03.173Z,29.70
2019-04-26T13:05:34.362Z,29.50
2019-04-26T13:08:04.308Z,29.50
2019-04-26T13:10:41.595Z,29.60
2019-04-26T13:13:15.931Z,29.40
2019-04-26T13:16:00.899Z,29.00
2019-04-26T13:18:31.861Z,29.00
2019-04-26T13:21:04.310Z,29.20
2019-04-26T13:23:34.544Z,29.30
2019-04-26T13:26:04.433Z,29.40
2019-04-26T13:28:34.365Z,29.60
2019-04-26T13:31:05.555Z,29.50
2019-04-26T13:33:35.637Z,29.60
2019-04-26T13:36:05.695Z,30.00
2019-04-26T13:38:39.523Z,29.60
2019-04-26T13:41:07.453Z,29.30
2019-04-26T13:43:37.332Z,28.80
2019-04-26T13:46:08.852Z,28.90
2019-04-26T13:48:43.838Z,28.80
2019-04-26T13:51:19.204Z,28.90
2019-04-26T13:53:50.629Z,29.00
2019-04-26T13:56:20.576Z,29.40
2019-04-26T13:58:54.354Z,29.50
2019-04-26T14:01:24.014Z,29.30
2019-04-26T14:03:54.117Z,29.10
2019-04-26T14:06:23.939Z,29.20
2019-04-26T14:08:57.489Z,29.40
2019-04-26T14:11:29.449Z,29.40
2019-04-26T14:13:59.987Z,29.30
2019-04-26T14:16:31.645Z,29.30
2019-04-26T14:19:01.805Z,29.20
2019-04-26T14:21:33.057Z,28.90
2019-04-26T14:24:25.087Z,28.70
2019-04-26T14:26:56.713Z,28.80
2019-04-26T14:29:28.471Z,28.80
2019-04-26T14:31:58.455Z,28.40
2019-04-26T14:34:28.448Z,28.40
2019-04-26T14:37:06.440Z,28.20
2019-04-26T14:39:38.402Z,28.00
2019-04-26T14:42:01.943Z,28.20
2019-04-26T14:44:33.475Z,28.00
2019-04-26T14:47:13.483Z,28.10
2019-04-26T14:49:39.568Z,28.10
2019-04-26T14:52:07.078Z,28.10
2019-04-26T14:54:36.982Z,28.40
2019-04-26T14:57:12.777Z,28.70
2019-04-26T14:59:52.821Z,29.00
2019-04-26T15:02:36.419Z,29.00
2019-04-26T15:05:12.313Z,28.80
2019-04-26T15:07:49.454Z,28.50
2019-04-26T15:10:14.046Z,28.20
2019-04-26T15:12:47.007Z,27.90
2019-04-26T15:15:15.549Z,27.80
2019-04-26T15:17:45.468Z,27.80
2019-04-26T15:20:16.688Z,27.60
2019-04-26T15:22:49.896Z,27.50
2019-04-26T15:25:18.999Z,27.40
2019-04-26T15:27:49.002Z,27.50
2019-04-26T15:30:18.841Z,27.70
2019-04-26T15:32:48.781Z,27.70
2019-04-26T15:35:18.707Z,27.80
2019-04-26T15:37:48.629Z,27.80
2019-04-26T15:40:35.969Z,27.90
2019-04-26T15:43:14.214Z,28.10
2019-04-26T15:45:43.645Z,28.40
2019-04-26T15:48:33.009Z,28.20
2019-04-26T15:51:03.025Z,28.10
2019-04-26T15:53:33.329Z,27.80
2019-04-26T15:56:03.224Z,27.40
2019-04-26T15:58:33.221Z,27.20
2019-04-26T16:01:06.802Z,27.00
2019-04-26T16:03:36.851Z,26.90
2019-04-26T16:06:08.185Z,26.80
2019-04-26T16:08:42.501Z,26.70
2019-04-26T16:11:11.384Z,26.60
2019-04-26T16:13:45.089Z,26.50
2019-04-26T16:16:12.837Z,26.40
2019-04-26T16:18:44.441Z,26.40
2019-04-26T16:21:17.790Z,26.10
2019-04-26T16:23:51.427Z,26.00
2019-04-26T16:26:18.459Z,25.70
2019-04-26T16:29:05.178Z,25.50
2019-04-26T16:31:52.921Z,25.30
2019-04-26T16:34:24.551Z,25.10
2019-04-26T16:36:54.443Z,24.90
2019-04-26T16:39:28.428Z,24.70
2019-04-26T16:41:59.409Z,24.60
2019-04-26T16:44:31.185Z,24.50
2019-04-26T16:47:03.681Z,24.40
2019-04-26T16:49:35.123Z,24.30
2019-04-26T16:52:06.809Z,24.20
2019-04-26T16:54:34.277Z,24.10
2019-04-26T16:57:11.179Z,23.90
2019-04-26T16:59:37.291Z,23.80
2019-04-26T17:02:07.222Z,23.70
2019-04-26T17:04:37.296Z,23.50
2019-04-26T17:07:07.128Z,23.50
2019-04-26T17:09:57.077Z,23.40
2019-04-26T17:12:10.482Z,23.30
2019-04-26T17:14:47.504Z,23.20
2019-04-26T17:17:14.182Z,23.00
2019-04-26T17:19:44.385Z,23.00
2019-04-26T17:22:44.188Z,23.00
2019-04-26T17:25:16.541Z,22.90
2019-04-26T17:27:47.140Z,22.80
2019-04-26T17:30:19.413Z,22.70
2019-04-26T17:32:51.656Z,22.70
2019-04-26T17:35:21.421Z,22.60
2019-04-26T17:37:51.860Z,22.50
2019-04-26T17:40:25.140Z,22.50
2019-04-26T17:42:53.455Z,22.40
2019-04-26T17:45:23.306Z,22.30
2019-04-26T17:47:53.442Z,22.20
2019-04-26T17:50:23.468Z,22.10
2019-04-26T17:52:53.437Z,22.00
2019-04-26T17:55:23.530Z,21.90
2019-04-26T17:58:09.636Z,21.80
2019-04-26T18:00:30.060Z,21.80
2019-04-26T18:03:01.481Z,21.70
2019-04-26T18:05:45.034Z,21.60
2019-04-26T18:08:30.484Z,21.50
2019-04-26T18:10:35.611Z,21.40
2019-04-26T18:13:11.213Z,21.30
2019-04-26T18:15:39.983Z,21.30
2019-04-26T18:18:14.467Z,21.30
2019-04-26T18:20:45.078Z,21.30
2019-04-26T18:23:18.635Z,21.30
2019-04-26T18:25:48.137Z,21.30
2019-04-26T18:28:18.136Z,21.20
2019-04-26T18:30:48.023Z,21.00
2019-04-26T18:33:24.129Z,21.10
2019-04-26T18:35:54.084Z,21.00
2019-04-26T18:38:21.083Z,21.00
2019-04-26T18:41:01.054Z,20.90
2019-04-26T18:43:24.302Z,21.00
2019-04-26T18:45:58.582Z,21.00
2019-04-26T18:48:27.678Z,20.90
2019-04-26T18:50:57.658Z,20.90
2019-04-26T18:53:39.363Z,20.80
2019-04-26T18:56:10.271Z,20.80
2019-04-26T18:58:40.505Z,20.70
2019-04-26T19:01:13.590Z,20.60
2019-04-26T19:03:44.228Z,20.60
2019-04-26T19:06:27.030Z,20.50
2019-04-26T19:08:52.232Z,20.50
2019-04-26T19:11:21.796Z,20.50
2019-04-26T19:14:12.980Z,20.50
2019-04-26T19:16:50.592Z,20.40
2019-04-26T19:19:33.884Z,20.20
2019-04-26T19:22:09.509Z,20.10
2019-04-26T19:24:38.717Z,20.00
2019-04-26T19:27:12.355Z,20.00
2019-04-26T19:29:44.395Z,19.90
2019-04-26T19:32:15.129Z,19.80
2019-04-26T19:34:45.481Z,19.80
2019-04-26T19:37:15.775Z,19.70
2019-04-26T19:39:45.894Z,19.60
2019-04-26T19:42:16.218Z,19.60
2019-04-26T19:44:49.476Z,19.50
2019-04-26T19:47:20.146Z,19.50
2019-04-26T19:50:09.599Z,19.40
2019-04-26T19:52:45.038Z,19.30
2019-04-26T19:55:33.918Z,19.30
2019-04-26T19:58:09.766Z,19.30
2019-04-26T20:00:43.430Z,19.20
2019-04-26T20:03:16.631Z,19.20
2019-04-26T20:05:44.906Z,19.10
2019-04-26T20:08:16.369Z,19.10
2019-04-26T20:10:46.270Z,19.00
2019-04-26T20:13:16.806Z,19.00
2019-04-26T20:15:46.965Z,18.90
2019-04-26T20:18:17.656Z,18.90
2019-04-26T20:20:48.060Z,18.90
2019-04-26T20:23:19.523Z,18.80
2019-04-26T20:25:52.707Z,18.80
2019-04-26T20:28:22.752Z,18.70
2019-04-26T20:31:07.098Z,18.70
2019-04-26T20:33:34.953Z,18.70
2019-04-26T20:36:04.880Z,18.70
2019-04-26T20:38:42.846Z,18.60
2019-04-26T20:41:07.419Z,18.50
2019-04-26T20:43:44.314Z,18.50
2019-04-26T20:46:14.800Z,18.40
2019-04-26T20:48:42.597Z,18.40
2019-04-26T20:51:13.402Z,18.40
2019-04-26T20:53:43.978Z,18.40
2019-04-26T20:56:18.293Z,18.30
2019-04-26T20:58:47.205Z,18.20
2019-04-26T21:01:18.176Z,18.20
2019-04-26T21:03:48.909Z,18.20
2019-04-26T21:06:19.233Z,18.10
2019-04-26T21:08:49.765Z,18.10
2019-04-26T21:11:21.788Z,18.10
2019-04-26T21:13:52.078Z,18.00
2019-04-26T21:16:22.578Z,18.00
2019-04-26T21:18:53.310Z,17.90
2019-04-26T21:21:23.859Z,17.90
2019-04-26T21:23:53.960Z,17.80
2019-04-26T21:26:28.786Z,17.80
2019-04-26T21:29:04.251Z,17.70
2019-04-26T21:31:45.506Z,17.70
2019-04-26T21:34:16.098Z,17.70
2019-04-26T21:36:54.165Z,17.60
2019-04-26T21:39:44.187Z,17.70
2019-04-26T21:42:17.182Z,17.60
2019-04-26T21:44:51.792Z,17.50
2019-04-26T21:47:19.096Z,17.50
2019-04-26T21:49:54.015Z,17.60
2019-04-26T21:52:21.501Z,17.50
2019-04-26T21:54:56.273Z,17.50
2019-04-26T21:57:27.892Z,17.40
2019-04-26T21:59:56.452Z,17.40
2019-04-26T22:02:29.538Z,17.40
2019-04-26T22:04:59.144Z,17.30
2019-04-26T22:07:29.673Z,17.30
2019-04-26T22:10:09.437Z,17.30
2019-04-26T22:12:39.946Z,17.30
2019-04-26T22:15:29.548Z,17.20
2019-04-26T22:18:03.218Z,17.20
2019-04-26T22:20:48.119Z,17.10
2019-04-26T22:23:16.521Z,17.10
2019-04-26T22:25:49.658Z,17.10
2019-04-26T22:28:19.982Z,17.00
2019-04-26T22:30:50.101Z,17.00
2019-04-26T22:33:20.425Z,17.00
2019-04-26T22:35:54.711Z,17.00
2019-04-26T22:38:26.576Z,17.00
2019-04-26T22:40:56.136Z,16.90
2019-04-26T22:43:44.664Z,16.90
2019-04-26T22:46:44.388Z,16.90
2019-04-26T22:49:05.722Z,16.90
2019-04-26T22:51:37.171Z,16.80
2019-04-26T22:54:07.456Z,16.80
2019-04-26T22:56:38.448Z,16.80
2019-04-26T22:59:08.923Z,16.80
2019-04-26T23:01:43.896Z,16.70
2019-04-26T23:04:11.420Z,16.70
2019-04-26T23:06:42.379Z,16.60
2019-04-26T23:09:16.941Z,16.50
2019-04-26T23:11:46.722Z,16.50
2019-04-26T23:14:24.569Z,16.50
2019-04-26T23:17:14.067Z,16.50
2019-04-26T23:19:54.173Z,16.40
2019-04-26T23:22:30.791Z,16.30
2019-04-26T23:24:58.071Z,16.20
2019-04-26T23:27:28.155Z,16.20
2019-04-26T23:29:58.549Z,16.20
2019-04-26T23:32:29.212Z,16.20
2019-04-26T23:35:02.927Z,16.20
2019-04-26T23:37:32.112Z,16.20
2019-04-26T23:40:03.965Z,16.20
2019-04-26T23:42:34.194Z,16.30
2019-04-26T23:45:10.515Z,16.30
2019-04-26T23:47:38.774Z,16.30
2019-04-26T23:50:09.056Z,16.30
2019-04-26T23:52:39.375Z,16.20
2019-04-26T23:55:10.519Z,16.20
2019-04-26T23:57:43.370Z,16.20
